createdAt,value
2023-02-19T00:01:48.096Z,2.00
2023-02-19T00:04:19.057Z,2.50
2023-02-19T00:06:48.445Z,2.83
2023-02-19T00:09:18.523Z,2.13
2023-02-19T00:11:47.490Z,2.20
2023-02-19T00:14:18.776Z,3.60
2023-02-19T00:16:47.206Z,5.30
2023-02-19T00:19:19.327Z,2.97
2023-02-19T00:21:47.400Z,2.50
2023-02-19T00:24:16.387Z,2.77
2023-02-19T00:26:46.080Z,3.10
2023-02-19T00:29:15.498Z,2.80
2023-02-19T00:31:43.664Z,2.70
2023-02-19T00:34:13.426Z,2.90
2023-02-19T00:36:43.748Z,2.93
2023-02-19T00:39:18.615Z,3.00
2023-02-19T00:41:46.863Z,2.80
2023-02-19T00:44:15.568Z,3.97
2023-02-19T00:46:45.940Z,2.97
2023-02-19T00:49:18.028Z,3.10
2023-02-19T00:51:47.839Z,3.60
2023-02-19T00:54:19.070Z,3.57
2023-02-19T00:56:47.382Z,2.97
2023-02-19T00:59:16.132Z,2.90
2023-02-19T01:01:45.394Z,3.97
2023-02-19T01:04:13.782Z,6.10
2023-02-19T01:06:42.038Z,3.13
2023-02-19T01:09:11.269Z,3.37
2023-02-19T01:11:39.388Z,3.23
2023-02-19T01:14:07.356Z,4.63
2023-02-19T01:16:35.263Z,2.43
2023-02-19T01:19:03.375Z,3.30
2023-02-19T01:21:32.306Z,3.00
2023-02-19T01:24:00.528Z,3.00
2023-02-19T01:26:32.032Z,2.93
2023-02-19T01:29:00.159Z,4.43
2023-02-19T01:31:30.567Z,3.80
2023-02-19T01:34:01.331Z,3.40
2023-02-19T01:36:30.602Z,3.17
2023-02-19T01:39:03.984Z,7.20
2023-02-19T01:41:36.006Z,2.67
2023-02-19T01:44:07.970Z,3.20
2023-02-19T01:46:37.200Z,2.90
2023-02-19T01:49:10.844Z,3.20
2023-02-19T01:51:42.151Z,3.10
2023-02-19T01:54:12.535Z,3.83
2023-02-19T01:56:44.246Z,4.10
2023-02-19T01:59:13.156Z,3.00
2023-02-19T02:01:42.117Z,3.20
2023-02-19T02:04:11.907Z,3.40
2023-02-19T02:06:45.743Z,3.13
2023-02-19T02:09:32.124Z,4.73
2023-02-19T02:12:01.410Z,3.23
2023-02-19T02:14:34.437Z,3.27
2023-02-19T02:17:13.533Z,4.50
2023-02-19T02:20:07.229Z,3.80
2023-02-19T02:22:39.476Z,6.10
2023-02-19T02:25:40.024Z,3.90
2023-02-19T02:28:21.423Z,6.60
2023-02-19T02:30:52.918Z,5.23
2023-02-19T02:33:27.703Z,4.07
2023-02-19T02:36:00.253Z,4.50
2023-02-19T02:38:30.868Z,5.17
2023-02-19T02:40:59.749Z,6.87
2023-02-19T02:43:27.698Z,5.43
2023-02-19T02:45:57.120Z,4.20
2023-02-19T02:48:30.809Z,4.80
2023-02-19T02:51:05.139Z,7.67
2023-02-19T02:53:54.518Z,4.60
2023-02-19T02:56:23.261Z,4.50
2023-02-19T02:58:52.881Z,5.60
2023-02-19T03:01:43.269Z,5.73
2023-02-19T03:04:15.164Z,3.63
2023-02-19T03:06:45.177Z,3.47
2023-02-19T03:09:18.435Z,5.73
2023-02-19T03:12:07.917Z,3.60
2023-02-19T03:14:57.849Z,3.67
2023-02-19T03:17:52.308Z,4.07
2023-02-19T03:20:24.030Z,5.67
2023-02-19T03:22:53.077Z,5.10
2023-02-19T03:25:41.336Z,6.87
2023-02-19T03:28:12.248Z,5.37
2023-02-19T03:30:44.746Z,5.23
2023-02-19T03:33:16.869Z,4.57
2023-02-19T03:35:48.407Z,8.03
2023-02-19T03:38:21.000Z,6.53
2023-02-19T03:40:56.836Z,6.27
2023-02-19T03:43:31.953Z,5.87
2023-02-19T03:46:09.217Z,8.63
2023-02-19T03:48:42.125Z,8.60
2023-02-19T03:51:21.457Z,7.67
2023-02-19T03:53:54.622Z,7.00
2023-02-19T03:56:29.453Z,6.90
2023-02-19T03:59:03.273Z,10.97
2023-02-19T04:01:37.512Z,9.30
2023-02-19T04:04:12.907Z,7.77
2023-02-19T04:06:43.180Z,8.80
2023-02-19T04:09:14.926Z,8.50
2023-02-19T04:11:43.516Z,11.07
2023-02-19T04:14:16.479Z,9.77
2023-02-19T04:16:49.928Z,10.30
2023-02-19T04:19:22.586Z,10.37
2023-02-19T04:21:53.900Z,9.80
2023-02-19T04:24:27.844Z,12.83
2023-02-19T04:26:56.903Z,11.83
2023-02-19T04:29:24.763Z,10.00
2023-02-19T04:31:52.734Z,11.03
2023-02-19T04:34:22.030Z,9.57
2023-02-19T04:36:49.890Z,10.80
2023-02-19T04:39:17.829Z,9.50
2023-02-19T04:41:45.705Z,9.47
2023-02-19T04:44:13.692Z,8.97
2023-02-19T04:46:43.110Z,12.87
2023-02-19T04:49:11.224Z,12.90
2023-02-19T04:51:41.378Z,9.87
2023-02-19T04:54:09.696Z,10.23
2023-02-19T04:56:37.635Z,11.40
2023-02-19T04:59:05.775Z,11.30
2023-02-19T05:01:33.683Z,10.00
2023-02-19T05:04:01.667Z,12.77
2023-02-19T05:06:29.860Z,10.27
2023-02-19T05:09:00.270Z,12.83
2023-02-19T05:11:28.184Z,13.37
2023-02-19T05:13:56.701Z,8.37
2023-02-19T05:16:24.863Z,10.17
2023-02-19T05:18:52.714Z,10.80
2023-02-19T05:21:20.637Z,11.70
2023-02-19T05:23:48.568Z,7.93
2023-02-19T05:26:19.969Z,10.00
2023-02-19T05:28:50.077Z,12.43
2023-02-19T05:31:18.684Z,10.27
2023-02-19T05:33:51.019Z,11.63
2023-02-19T05:36:20.300Z,10.93
2023-02-19T05:38:49.336Z,16.43
2023-02-19T05:41:20.865Z,13.77
2023-02-19T05:43:50.482Z,12.70
2023-02-19T05:46:20.506Z,11.07
2023-02-19T05:48:48.999Z,12.33
2023-02-19T05:51:19.723Z,13.73
2023-02-19T05:53:48.048Z,12.17
2023-02-19T05:56:28.769Z,15.37
2023-02-19T05:58:57.554Z,9.43
2023-02-19T06:01:27.518Z,10.87
2023-02-19T06:03:57.511Z,12.10
2023-02-19T06:06:26.611Z,13.23
2023-02-19T06:08:55.158Z,12.03
2023-02-19T06:11:25.659Z,9.57
2023-02-19T06:13:53.599Z,13.07
2023-02-19T06:16:21.947Z,13.17
2023-02-19T06:18:50.399Z,12.97
2023-02-19T06:21:20.069Z,13.83
2023-02-19T06:23:47.963Z,13.23
2023-02-19T06:26:18.698Z,11.13
2023-02-19T06:28:49.566Z,11.27
2023-02-19T06:31:18.911Z,11.10
2023-02-19T06:33:47.079Z,13.27
2023-02-19T06:36:17.139Z,22.27
2023-02-19T06:38:45.443Z,14.97
2023-02-19T06:41:14.567Z,12.77
2023-02-19T06:43:42.892Z,13.27
2023-02-19T06:46:14.011Z,14.33
2023-02-19T06:48:43.297Z,12.33
2023-02-19T06:51:13.551Z,14.00
2023-02-19T06:53:41.472Z,12.43
2023-02-19T06:56:24.612Z,14.87
2023-02-19T06:58:52.763Z,14.53
2023-02-19T07:01:22.330Z,13.93
2023-02-19T07:03:50.908Z,11.43
2023-02-19T07:06:18.864Z,15.63
2023-02-19T07:08:46.857Z,12.67
2023-02-19T07:11:14.957Z,9.33
2023-02-19T07:13:42.875Z,12.00
2023-02-19T07:16:12.140Z,9.33
2023-02-19T07:18:42.031Z,12.57
2023-02-19T07:21:12.221Z,9.77
2023-02-19T07:23:40.899Z,14.50
2023-02-19T07:26:10.936Z,11.30
2023-02-19T07:28:38.993Z,9.97
2023-02-19T07:31:07.259Z,10.63
2023-02-19T07:33:35.246Z,13.13
2023-02-19T07:36:04.850Z,10.67
2023-02-19T07:38:32.703Z,10.50
2023-02-19T07:41:02.689Z,14.27
2023-02-19T07:43:32.537Z,14.50
2023-02-19T07:46:03.425Z,14.33
2023-02-19T07:48:31.401Z,11.33
2023-02-19T07:51:02.467Z,15.63
2023-02-19T07:53:32.707Z,10.37
2023-02-19T07:56:02.525Z,9.87
2023-02-19T07:58:30.734Z,9.90
2023-02-19T08:00:59.117Z,9.00
2023-02-19T08:03:26.197Z,14.67
2023-02-19T08:05:54.963Z,10.53
2023-02-19T08:08:22.922Z,14.63
2023-02-19T08:11:09.814Z,14.97
2023-02-19T08:13:37.954Z,11.60
2023-02-19T08:16:21.824Z,9.07
2023-02-19T08:18:52.347Z,9.43
2023-02-19T08:21:20.647Z,12.30
2023-02-19T08:23:51.181Z,11.27
2023-02-19T08:26:20.624Z,9.53
2023-02-19T08:28:49.771Z,10.43
2023-02-19T08:31:17.690Z,12.17
2023-02-19T08:33:45.656Z,11.40
2023-02-19T08:36:13.498Z,12.63
2023-02-19T08:38:41.364Z,14.07
2023-02-19T08:41:11.276Z,11.67
2023-02-19T08:43:41.522Z,14.23
2023-02-19T08:46:11.103Z,10.87
2023-02-19T08:48:39.903Z,11.40
2023-02-19T08:51:10.657Z,13.27
2023-02-19T08:53:40.142Z,14.73
2023-02-19T08:56:09.270Z,10.00
2023-02-19T08:58:37.427Z,10.13
2023-02-19T09:01:10.123Z,12.87
2023-02-19T09:03:38.319Z,13.17
2023-02-19T09:06:06.625Z,14.20
2023-02-19T09:08:34.546Z,10.87
2023-02-19T09:11:04.457Z,12.97
2023-02-19T09:13:32.443Z,12.33
2023-02-19T09:16:00.465Z,12.70
2023-02-19T09:18:29.687Z,9.70
2023-02-19T09:21:01.423Z,8.63
2023-02-19T09:23:29.434Z,13.30
2023-02-19T09:26:00.942Z,7.63
2023-02-19T09:28:29.256Z,11.03
2023-02-19T09:30:57.294Z,7.90
2023-02-19T09:33:25.292Z,9.00
2023-02-19T09:35:54.509Z,11.17
2023-02-19T09:38:22.614Z,7.90
2023-02-19T09:40:50.659Z,12.97
2023-02-19T09:43:21.684Z,10.60
2023-02-19T09:45:50.932Z,9.30
2023-02-19T09:48:18.903Z,13.13
2023-02-19T09:50:49.718Z,12.97
2023-02-19T09:53:23.070Z,14.47
2023-02-19T09:55:52.945Z,8.27
2023-02-19T09:58:27.056Z,12.00
2023-02-19T10:00:57.702Z,10.23
2023-02-19T10:03:30.902Z,10.37
2023-02-19T10:06:01.785Z,6.60
2023-02-19T10:08:34.203Z,8.53
2023-02-19T10:11:02.812Z,5.40
2023-02-19T10:13:34.195Z,9.17
2023-02-19T10:16:04.080Z,7.77
2023-02-19T10:18:38.865Z,8.93
2023-02-19T10:21:07.346Z,10.03
2023-02-19T10:23:36.754Z,8.70
2023-02-19T10:26:04.892Z,6.73
2023-02-19T10:28:35.766Z,9.13
2023-02-19T10:31:07.601Z,8.83
2023-02-19T10:33:49.866Z,7.00
2023-02-19T10:36:32.948Z,7.00
2023-02-19T10:39:04.552Z,8.43
2023-02-19T10:41:32.907Z,8.97
2023-02-19T10:44:07.271Z,8.67
2023-02-19T10:46:38.402Z,7.37
2023-02-19T10:49:18.444Z,5.47
2023-02-19T10:51:47.800Z,8.47
2023-02-19T10:54:21.489Z,6.57
2023-02-19T10:56:49.350Z,7.00
2023-02-19T10:59:25.421Z,7.97
2023-02-19T11:01:58.387Z,6.87
2023-02-19T11:04:27.824Z,6.97
2023-02-19T11:06:57.419Z,8.33
2023-02-19T11:09:31.251Z,6.73
2023-02-19T11:11:59.616Z,7.87
2023-02-19T11:14:28.380Z,7.37
2023-02-19T11:16:58.273Z,7.17
2023-02-19T11:19:32.730Z,4.97
2023-02-19T11:22:01.853Z,6.50
2023-02-19T11:24:35.040Z,5.30
2023-02-19T11:27:05.553Z,8.33
2023-02-19T11:29:35.519Z,5.63
2023-02-19T11:32:33.550Z,4.87
2023-02-19T11:35:19.625Z,6.40
2023-02-19T11:37:59.192Z,6.50
2023-02-19T11:40:40.924Z,10.37
2023-02-19T11:43:19.891Z,6.40
2023-02-19T11:45:54.000Z,4.30
2023-02-19T11:48:45.375Z,3.87
2023-02-19T11:51:33.679Z,7.17
2023-02-19T11:54:15.947Z,5.87
2023-02-19T11:56:47.365Z,2.90
2023-02-19T11:59:23.976Z,6.17
2023-02-19T12:02:25.805Z,5.17
2023-02-19T12:05:29.554Z,7.30
2023-02-19T12:08:33.226Z,5.03
2023-02-19T12:11:21.257Z,7.73
2023-02-19T12:14:06.427Z,4.47
2023-02-19T12:16:41.306Z,5.27
2023-02-19T12:19:21.250Z,7.63
2023-02-19T12:22:01.478Z,4.33
2023-02-19T12:24:44.832Z,5.77
2023-02-19T12:27:26.807Z,6.43
2023-02-19T12:30:18.195Z,5.83
2023-02-19T12:33:03.205Z,7.30
2023-02-19T12:35:44.281Z,5.97
2023-02-19T12:38:22.415Z,5.37
2023-02-19T12:41:15.890Z,3.63
2023-02-19T12:43:52.794Z,5.50
2023-02-19T12:46:26.771Z,5.57
2023-02-19T12:49:00.442Z,6.87
2023-02-19T12:51:33.031Z,6.87
2023-02-19T12:54:06.194Z,6.73
2023-02-19T12:56:37.345Z,5.37
2023-02-19T12:59:11.209Z,5.37
2023-02-19T13:01:47.958Z,6.80
2023-02-19T13:04:23.746Z,4.80
2023-02-19T13:06:56.842Z,5.03
2023-02-19T13:09:30.540Z,4.00
2023-02-19T13:12:03.574Z,5.63
2023-02-19T13:14:37.470Z,7.00
2023-02-19T13:17:16.472Z,4.97
2023-02-19T13:19:46.650Z,3.37
2023-02-19T13:22:42.547Z,5.30
2023-02-19T13:25:11.789Z,4.73
2023-02-19T13:27:58.847Z,4.23
2023-02-19T13:30:37.215Z,6.50
2023-02-19T13:33:19.637Z,5.27
2023-02-19T13:36:16.692Z,2.30
2023-02-19T13:38:47.102Z,1.80
2023-02-19T13:41:26.477Z,2.87
2023-02-19T13:43:58.255Z,2.53
2023-02-19T13:46:33.999Z,1.90
2023-02-19T13:49:44.667Z,4.33
2023-02-19T13:52:41.863Z,3.63
2023-02-19T13:55:47.243Z,2.90
2023-02-19T13:59:02.382Z,3.27
2023-02-19T14:02:13.332Z,2.40
2023-02-19T14:04:51.510Z,2.67
2023-02-19T14:07:39.155Z,2.50
2023-02-19T14:10:13.681Z,5.77
2023-02-19T14:12:41.589Z,4.47
2023-02-19T14:15:43.608Z,4.50
2023-02-19T14:18:50.347Z,6.33
2023-02-19T14:21:25.563Z,4.97
2023-02-19T14:23:56.205Z,6.67
2023-02-19T14:26:26.837Z,6.60
2023-02-19T14:28:55.428Z,4.93
2023-02-19T14:31:30.139Z,5.70
2023-02-19T14:34:01.376Z,10.27
2023-02-19T14:36:48.633Z,6.30
2023-02-19T14:39:20.016Z,4.97
2023-02-19T14:41:53.238Z,6.57
2023-02-19T14:44:24.938Z,14.73
2023-02-19T14:46:58.356Z,9.70
2023-02-19T14:49:31.563Z,9.47
2023-02-19T14:52:02.289Z,4.57
2023-02-19T14:54:41.940Z,8.00
2023-02-19T14:57:18.865Z,11.33
2023-02-19T14:59:54.646Z,6.07
2023-02-19T15:02:25.810Z,8.87
2023-02-19T15:04:54.531Z,8.50
2023-02-19T15:07:25.419Z,7.73
2023-02-19T15:09:57.113Z,9.10
2023-02-19T15:12:30.362Z,11.63
2023-02-19T15:15:03.456Z,9.57
2023-02-19T15:17:33.424Z,6.73
2023-02-19T15:20:04.915Z,8.67
2023-02-19T15:22:34.258Z,7.20
2023-02-19T15:25:03.116Z,9.43
2023-02-19T15:27:34.415Z,12.43
2023-02-19T15:30:02.535Z,9.17
2023-02-19T15:32:30.573Z,11.10
2023-02-19T15:35:00.445Z,9.00
2023-02-19T15:37:32.173Z,11.50
2023-02-19T15:40:02.166Z,11.83
2023-02-19T15:42:33.777Z,13.53
2023-02-19T15:45:05.739Z,10.67
2023-02-19T15:47:38.918Z,12.00
2023-02-19T15:50:11.509Z,9.13
2023-02-19T15:52:46.698Z,10.50
2023-02-19T15:55:28.159Z,11.80
2023-02-19T15:58:05.664Z,9.13
2023-02-19T16:00:39.777Z,9.67
2023-02-19T16:03:14.408Z,11.83
2023-02-19T16:05:42.626Z,9.10
2023-02-19T16:08:19.665Z,11.53
2023-02-19T16:10:55.949Z,11.50
2023-02-19T16:13:27.411Z,9.07
2023-02-19T16:16:02.631Z,7.97
2023-02-19T16:18:31.350Z,11.60
2023-02-19T16:21:00.248Z,15.07
2023-02-19T16:23:28.794Z,12.00
2023-02-19T16:26:01.858Z,10.57
2023-02-19T16:28:37.723Z,8.23
2023-02-19T16:31:08.426Z,12.90
2023-02-19T16:33:40.111Z,9.53
2023-02-19T16:36:33.475Z,10.37
2023-02-19T16:39:18.142Z,9.40
2023-02-19T16:42:19.503Z,9.10
2023-02-19T16:44:51.751Z,8.90
2023-02-19T16:47:35.955Z,6.47
2023-02-19T16:50:12.156Z,9.80
2023-02-19T16:52:52.042Z,6.30
2023-02-19T16:55:20.005Z,7.77
2023-02-19T16:57:48.024Z,6.93
2023-02-19T17:00:22.663Z,9.73
2023-02-19T17:02:52.498Z,7.17
2023-02-19T17:05:22.447Z,10.70
2023-02-19T17:07:51.152Z,10.77
2023-02-19T17:10:22.927Z,9.10
2023-02-19T17:12:50.995Z,9.77
2023-02-19T17:15:20.630Z,7.30
2023-02-19T17:17:49.552Z,7.97
2023-02-19T17:20:25.248Z,9.77
2023-02-19T17:22:53.136Z,6.77
2023-02-19T17:25:21.699Z,7.57
2023-02-19T17:27:49.765Z,9.97
2023-02-19T17:30:24.566Z,10.57
2023-02-19T17:32:52.611Z,8.03
2023-02-19T17:35:20.661Z,9.23
2023-02-19T17:37:48.640Z,7.50
2023-02-19T17:40:32.341Z,8.67
2023-02-19T17:43:01.483Z,8.37
2023-02-19T17:45:31.144Z,9.83
2023-02-19T17:47:59.537Z,8.17
2023-02-19T17:50:30.092Z,6.63
2023-02-19T17:52:58.035Z,8.03
2023-02-19T17:55:27.506Z,7.37
2023-02-19T17:57:56.274Z,5.23
2023-02-19T18:00:26.786Z,9.73
2023-02-19T18:02:56.813Z,7.50
2023-02-19T18:05:25.447Z,5.03
2023-02-19T18:07:53.517Z,4.40
2023-02-19T18:10:23.371Z,4.20
2023-02-19T18:12:52.093Z,3.83
2023-02-19T18:15:22.737Z,3.17
2023-02-19T18:17:50.687Z,4.03
2023-02-19T18:20:24.893Z,2.40
2023-02-19T18:22:53.225Z,3.17
2023-02-19T18:25:21.614Z,3.90
2023-02-19T18:27:50.104Z,3.10
2023-02-19T18:30:20.160Z,4.77
2023-02-19T18:32:48.690Z,4.50
2023-02-19T18:35:17.500Z,1.80
2023-02-19T18:37:46.950Z,3.93
2023-02-19T18:40:15.378Z,3.00
2023-02-19T18:42:43.378Z,3.20
2023-02-19T18:45:11.319Z,3.53
2023-02-19T18:47:39.282Z,3.23
2023-02-19T18:50:09.654Z,2.73
2023-02-19T18:52:37.612Z,2.53
2023-02-19T18:55:07.921Z,1.33
2023-02-19T18:57:35.829Z,4.70
2023-02-19T19:00:03.769Z,2.00
2023-02-19T19:02:42.668Z,1.27
2023-02-19T19:05:18.482Z,1.77
2023-02-19T19:07:46.388Z,1.57
2023-02-19T19:10:15.655Z,1.40
2023-02-19T19:12:43.607Z,4.17
2023-02-19T19:15:11.518Z,2.43
2023-02-19T19:17:40.927Z,1.63
2023-02-19T19:20:10.173Z,2.13
2023-02-19T19:22:38.436Z,3.03
2023-02-19T19:25:07.411Z,2.50
2023-02-19T19:27:37.160Z,2.00
2023-02-19T19:30:06.553Z,1.50
2023-02-19T19:32:34.466Z,1.50
2023-02-19T19:35:02.401Z,1.47
2023-02-19T19:37:30.419Z,1.57
2023-02-19T19:39:58.392Z,1.80
2023-02-19T19:42:26.666Z,5.20
2023-02-19T19:44:57.063Z,2.53
2023-02-19T19:47:25.044Z,3.20
2023-02-19T19:49:53.148Z,1.60
2023-02-19T19:52:21.057Z,2.17
2023-02-19T19:54:53.842Z,1.60
2023-02-19T19:57:22.153Z,1.73
2023-02-19T19:59:51.113Z,2.77
2023-02-19T20:02:20.791Z,2.80
2023-02-19T20:04:48.993Z,1.53
2023-02-19T20:07:16.955Z,2.73
2023-02-19T20:09:48.822Z,3.37
2023-02-19T20:12:17.076Z,2.23
2023-02-19T20:14:45.676Z,3.63
2023-02-19T20:17:13.680Z,1.60
2023-02-19T20:19:43.115Z,2.77
2023-02-19T20:22:12.174Z,2.43
2023-02-19T20:24:40.117Z,1.90
2023-02-19T20:27:08.744Z,2.57
2023-02-19T20:29:36.975Z,2.13
2023-02-19T20:32:05.239Z,1.77
2023-02-19T20:34:33.446Z,3.07
2023-02-19T20:37:02.813Z,1.93
2023-02-19T20:39:30.894Z,1.60
2023-02-19T20:42:00.059Z,3.50
2023-02-19T20:44:29.792Z,2.77
2023-02-19T20:46:59.344Z,4.67
2023-02-19T20:49:29.190Z,3.30
2023-02-19T20:51:59.727Z,1.60
2023-02-19T20:54:30.890Z,2.23
2023-02-19T20:57:00.781Z,3.70
2023-02-19T20:59:34.866Z,1.80
2023-02-19T21:02:03.391Z,2.00
2023-02-19T21:04:31.328Z,3.90
2023-02-19T21:06:59.319Z,3.37
2023-02-19T21:09:28.662Z,2.33
2023-02-19T21:11:56.749Z,1.90
2023-02-19T21:14:26.517Z,1.90
2023-02-19T21:16:55.073Z,2.57
2023-02-19T21:19:23.343Z,2.47
2023-02-19T21:21:51.245Z,4.13
2023-02-19T21:24:19.499Z,3.90
2023-02-19T21:26:49.406Z,3.23
2023-02-19T21:29:19.700Z,1.43
2023-02-19T21:31:49.969Z,1.40
2023-02-19T21:34:19.865Z,2.33
2023-02-19T21:36:48.484Z,2.50
2023-02-19T21:39:18.445Z,1.57
2023-02-19T21:41:46.646Z,1.67
2023-02-19T21:44:16.095Z,1.80
2023-02-19T21:46:44.094Z,2.10
2023-02-19T21:49:13.432Z,3.70
2023-02-19T21:51:47.799Z,2.17
2023-02-19T21:54:17.746Z,1.77
2023-02-19T21:56:45.804Z,5.40
2023-02-19T21:59:15.563Z,3.77
2023-02-19T22:01:43.660Z,3.57
2023-02-19T22:04:15.384Z,2.67
2023-02-19T22:06:44.057Z,2.10
2023-02-19T22:09:13.022Z,3.23
2023-02-19T22:11:41.141Z,4.20
2023-02-19T22:14:09.648Z,3.37
2023-02-19T22:16:39.072Z,4.73
2023-02-19T22:19:07.107Z,3.13
2023-02-19T22:21:35.438Z,3.57
2023-02-19T22:24:04.584Z,4.03
2023-02-19T22:26:34.598Z,3.67
2023-02-19T22:29:06.887Z,4.00
2023-02-19T22:31:35.675Z,4.23
2023-02-19T22:34:06.091Z,3.23
2023-02-19T22:36:37.153Z,3.73
2023-02-19T22:39:06.239Z,4.50
2023-02-19T22:41:36.410Z,3.27
2023-02-19T22:44:04.698Z,5.67
2023-02-19T22:46:33.159Z,2.60
2023-02-19T22:49:06.523Z,3.37
2023-02-19T22:51:36.495Z,3.47
2023-02-19T22:54:04.686Z,3.20
2023-02-19T22:56:32.924Z,3.30
2023-02-19T22:59:00.891Z,8.70
2023-02-19T23:01:28.862Z,6.97
2023-02-19T23:03:58.128Z,5.07
2023-02-19T23:06:29.665Z,6.30
2023-02-19T23:09:03.279Z,4.40
2023-02-19T23:11:33.804Z,6.13
2023-02-19T23:14:01.972Z,5.10
2023-02-19T23:16:32.832Z,3.77
2023-02-19T23:19:00.756Z,4.53
2023-02-19T23:21:30.068Z,4.93
2023-02-19T23:23:57.981Z,4.97
2023-02-19T23:26:26.534Z,6.83
2023-02-19T23:28:54.461Z,7.50
2023-02-19T23:31:22.744Z,4.50
2023-02-19T23:33:50.758Z,4.63
2023-02-19T23:36:18.935Z,7.70
2023-02-19T23:38:48.825Z,4.43
2023-02-19T23:41:18.613Z,7.47
2023-02-19T23:43:46.682Z,5.57
2023-02-19T23:46:17.453Z,7.60
2023-02-19T23:48:45.968Z,5.23
2023-02-19T23:51:14.078Z,4.87
2023-02-19T23:53:42.124Z,6.13
2023-02-19T23:56:11.827Z,5.03
2023-02-19T23:58:40.025Z,5.90
